createdAt,value
2022-08-05T00:00:30.589Z,35.42
2022-08-05T00:02:32.700Z,35.39
2022-08-05T00:04:35.002Z,35.18
2022-08-05T00:06:37.233Z,35.20
2022-08-05T00:08:40.068Z,35.42
2022-08-05T00:10:42.265Z,35.38
2022-08-05T00:12:55.817Z,35.54
2022-08-05T00:14:58.764Z,35.23
2022-08-05T00:17:18.529Z,35.18
2022-08-05T00:19:33.684Z,34.87
2022-08-05T00:21:47.681Z,34.90
2022-08-05T00:23:53.725Z,34.92
2022-08-05T00:26:12.005Z,35.04
2022-08-05T00:28:14.414Z,35.32
2022-08-05T00:30:16.535Z,35.13
2022-08-05T00:32:19.877Z,34.97
2022-08-05T00:34:55.856Z,35.08
2022-08-05T00:37:09.985Z,34.75
2022-08-05T00:39:06.343Z,34.98
2022-08-05T00:41:27.899Z,35.03
2022-08-05T00:43:50.031Z,35.17
2022-08-05T00:45:52.274Z,35.41
2022-08-05T00:47:57.740Z,35.23
2022-08-05T00:50:10.747Z,35.56
2022-08-05T00:52:12.902Z,35.65
2022-08-05T00:54:15.520Z,35.90
2022-08-05T00:56:22.741Z,35.85
2022-08-05T00:58:27.343Z,36.19
2022-08-05T01:00:31.916Z,36.23
2022-08-05T01:02:35.695Z,36.56
2022-08-05T01:04:37.608Z,36.48
2022-08-05T01:06:48.611Z,36.54
2022-08-05T01:08:51.148Z,36.51
2022-08-05T01:11:22.543Z,36.79
2022-08-05T01:14:03.008Z,36.85
2022-08-05T01:16:10.598Z,37.12
2022-08-05T01:18:16.546Z,37.06
2022-08-05T01:20:52.093Z,37.13
2022-08-05T01:23:15.147Z,37.30
2022-08-05T01:25:17.985Z,37.38
2022-08-05T01:27:50.508Z,37.93
2022-08-05T01:30:04.105Z,38.10
2022-08-05T01:32:12.401Z,38.35
2022-08-05T01:34:20.257Z,38.30
2022-08-05T01:36:29.748Z,38.25
2022-08-05T01:38:33.835Z,38.15
2022-08-05T01:40:37.621Z,38.49
2022-08-05T01:42:44.737Z,38.57
2022-08-05T01:44:53.895Z,38.84
2022-08-05T01:46:59.092Z,38.89
2022-08-05T01:49:02.381Z,38.96
2022-08-05T01:51:25.275Z,39.02
2022-08-05T01:53:57.484Z,39.35
2022-08-05T01:56:00.062Z,39.45
2022-08-05T01:58:40.379Z,39.69
2022-08-05T02:00:51.584Z,39.64
2022-08-05T02:03:24.263Z,39.59
2022-08-05T02:05:46.186Z,39.78
2022-08-05T02:08:08.848Z,40.00
2022-08-05T02:10:17.503Z,40.11
2022-08-05T02:12:46.693Z,39.99
2022-08-05T02:15:05.325Z,39.89
2022-08-05T02:18:30.759Z,40.02
2022-08-05T02:20:48.636Z,39.70
2022-08-05T02:23:12.604Z,39.85
2022-08-05T02:25:49.867Z,39.52
2022-08-05T02:27:59.905Z,39.69
2022-08-05T02:30:03.403Z,39.74
2022-08-05T02:32:08.975Z,39.56
2022-08-05T02:34:15.752Z,39.61
2022-08-05T02:36:23.938Z,39.71
2022-08-05T02:38:35.507Z,39.71
2022-08-05T02:41:01.554Z,39.53
2022-08-05T02:43:34.463Z,39.52
2022-08-05T02:45:59.042Z,39.46
2022-08-05T02:48:11.779Z,39.35
2022-08-05T02:50:18.007Z,39.43
2022-08-05T02:52:30.012Z,39.15
2022-08-05T02:54:37.019Z,39.26
2022-08-05T02:56:41.990Z,39.19
2022-08-05T02:58:51.474Z,39.33
2022-08-05T03:01:01.739Z,39.43
2022-08-05T03:03:10.191Z,39.68
2022-08-05T03:05:14.057Z,39.68
2022-08-05T03:07:24.718Z,39.66
2022-08-05T03:09:51.762Z,40.01
2022-08-05T03:11:57.962Z,40.03
2022-08-05T03:14:02.767Z,39.92
2022-08-05T03:16:05.945Z,40.12
2022-08-05T03:18:11.763Z,40.27
2022-08-05T03:20:13.921Z,40.33
2022-08-05T03:22:19.002Z,40.05
2022-08-05T03:24:33.958Z,40.21
2022-08-05T03:26:38.214Z,40.01
2022-08-05T03:28:49.300Z,40.68
2022-08-05T03:30:55.236Z,40.32
2022-08-05T03:32:57.430Z,40.40
2022-08-05T03:35:00.159Z,40.71
2022-08-05T03:37:04.381Z,40.44
2022-08-05T03:39:08.128Z,40.53
2022-08-05T03:41:16.847Z,40.50
2022-08-05T03:44:09.235Z,40.78
2022-08-05T03:45:57.129Z,40.72
2022-08-05T03:48:00.762Z,40.55
2022-08-05T03:50:02.739Z,40.41
2022-08-05T03:52:49.296Z,40.41
2022-08-05T03:55:53.476Z,40.60
2022-08-05T03:57:00.134Z,40.70
2022-08-05T03:59:05.797Z,40.78
2022-08-05T04:01:11.261Z,40.29
2022-08-05T04:03:28.412Z,40.59
2022-08-05T04:05:34.590Z,40.63
2022-08-05T04:07:58.194Z,40.90
2022-08-05T04:10:03.177Z,40.45
2022-08-05T04:12:05.714Z,40.17
2022-08-05T04:14:30.035Z,40.38
2022-08-05T04:16:33.404Z,40.32
2022-08-05T04:18:36.152Z,39.82
2022-08-05T04:20:45.359Z,39.81
2022-08-05T04:22:47.343Z,39.51
2022-08-05T04:24:52.873Z,39.81
2022-08-05T04:26:54.978Z,39.46
2022-08-05T04:29:01.253Z,39.42
2022-08-05T04:31:10.508Z,39.04
2022-08-05T04:33:13.725Z,39.30
2022-08-05T04:35:17.553Z,38.87
2022-08-05T04:37:21.643Z,39.10
2022-08-05T04:39:43.483Z,39.10
2022-08-05T04:41:48.241Z,39.16
2022-08-05T04:43:52.805Z,38.91
2022-08-05T04:45:55.655Z,39.51
2022-08-05T04:48:16.413Z,39.43
2022-08-05T04:50:37.193Z,39.60
2022-08-05T04:52:39.416Z,39.48
2022-08-05T04:54:41.549Z,39.55
2022-08-05T04:56:43.600Z,39.60
2022-08-05T04:58:51.661Z,39.60
2022-08-05T05:00:54.575Z,39.50
2022-08-05T05:03:00.219Z,39.54
2022-08-05T05:05:26.296Z,39.55
2022-08-05T05:07:29.733Z,39.76
2022-08-05T05:09:34.643Z,40.10
2022-08-05T05:11:48.556Z,40.11
2022-08-05T05:13:57.562Z,40.26
2022-08-05T05:16:06.092Z,40.33
2022-08-05T05:18:09.459Z,40.31
2022-08-05T05:20:13.097Z,40.23
2022-08-05T05:22:24.320Z,40.39
2022-08-05T05:24:56.209Z,40.72
2022-08-05T05:26:51.834Z,40.81
2022-08-05T05:28:53.807Z,40.81
2022-08-05T05:30:59.665Z,41.04
2022-08-05T05:33:16.624Z,41.25
2022-08-05T05:35:19.960Z,41.63
2022-08-05T05:37:22.017Z,41.11
2022-08-05T05:39:39.191Z,41.36
2022-08-05T05:41:44.929Z,41.94
2022-08-05T05:43:58.556Z,42.04
2022-08-05T05:46:02.170Z,42.40
2022-08-05T05:48:08.410Z,42.44
2022-08-05T05:50:16.336Z,42.45
2022-08-05T05:52:28.687Z,42.80
2022-08-05T05:54:49.812Z,42.58
2022-08-05T05:56:52.825Z,42.78
2022-08-05T05:58:54.692Z,42.72
2022-08-05T06:00:57.551Z,42.71
2022-08-05T06:03:40.718Z,43.28
2022-08-05T06:05:28.358Z,42.79
2022-08-05T06:07:41.937Z,43.34
2022-08-05T06:09:59.874Z,42.92
2022-08-05T06:12:02.874Z,42.77
2022-08-05T06:14:04.774Z,43.22
2022-08-05T06:16:31.068Z,42.85
2022-08-05T06:18:31.068Z,43.02
2022-08-05T06:20:33.419Z,42.49
2022-08-05T06:22:37.395Z,42.64
2022-08-05T06:24:46.759Z,42.70
2022-08-05T06:26:52.280Z,42.50
2022-08-05T06:28:54.998Z,42.78
2022-08-05T06:30:56.738Z,42.42
2022-08-05T06:32:59.015Z,42.83
2022-08-05T06:35:06.106Z,42.57
2022-08-05T06:37:58.354Z,42.64
2022-08-05T06:39:44.183Z,41.96
2022-08-05T06:41:45.992Z,41.92
2022-08-05T06:43:57.440Z,41.66
2022-08-05T06:46:03.992Z,41.50
2022-08-05T06:48:44.210Z,41.29
2022-08-05T06:50:31.312Z,41.58
2022-08-05T06:52:37.759Z,41.28
2022-08-05T06:54:40.028Z,41.58
2022-08-05T06:56:41.754Z,41.25
2022-08-05T06:58:57.322Z,41.32
2022-08-05T07:01:00.368Z,41.35
2022-08-05T07:03:02.085Z,41.87
2022-08-05T07:05:03.858Z,41.87
2022-08-05T07:07:24.125Z,41.74
2022-08-05T07:09:40.626Z,42.02
2022-08-05T07:11:49.362Z,42.25
2022-08-05T07:14:15.454Z,42.25
2022-08-05T07:18:01.082Z,41.92
2022-08-05T07:19:02.909Z,42.00
2022-08-05T07:21:06.975Z,42.00
2022-08-05T07:23:13.108Z,42.13
2022-08-05T07:25:54.908Z,42.41
2022-08-05T07:27:57.251Z,42.21
2022-08-05T07:30:22.306Z,41.52
2022-08-05T07:32:26.501Z,41.59
2022-08-05T07:34:29.714Z,41.01
2022-08-05T07:36:33.562Z,41.06
2022-08-05T07:38:43.549Z,41.29
2022-08-05T07:40:46.512Z,41.41
2022-08-05T07:42:57.740Z,40.71
2022-08-05T07:45:01.227Z,40.95
2022-08-05T07:47:02.979Z,40.72
2022-08-05T07:49:09.687Z,40.59
2022-08-05T07:51:23.355Z,40.59
2022-08-05T07:53:37.029Z,40.55
2022-08-05T07:56:05.795Z,39.94
2022-08-05T07:58:54.499Z,39.95
2022-08-05T08:00:36.401Z,40.09
2022-08-05T08:03:13.609Z,39.97
2022-08-05T08:05:00.535Z,40.11
2022-08-05T08:07:05.520Z,40.13
2022-08-05T08:09:08.950Z,40.08
2022-08-05T08:11:10.782Z,39.95
2022-08-05T08:13:22.046Z,40.20
2022-08-05T08:16:33.331Z,39.96
2022-08-05T08:17:53.526Z,39.77
2022-08-05T08:20:42.517Z,39.61
2022-08-05T08:22:17.081Z,39.51
2022-08-05T08:24:18.796Z,39.58
2022-08-05T08:26:26.885Z,39.24
2022-08-05T08:28:37.166Z,39.46
2022-08-05T08:30:53.594Z,39.56
2022-08-05T08:32:55.277Z,39.34
2022-08-05T08:34:57.791Z,39.67
2022-08-05T08:37:04.904Z,39.34
2022-08-05T08:39:15.369Z,38.90
2022-08-05T08:41:18.314Z,39.16
2022-08-05T08:45:18.522Z,39.12
2022-08-05T08:45:46.517Z,38.93
2022-08-05T08:48:07.517Z,38.80
2022-08-05T08:50:30.092Z,39.15
2022-08-05T08:52:36.640Z,38.95
2022-08-05T08:54:42.148Z,38.92
2022-08-05T08:56:47.870Z,39.16
2022-08-05T08:58:52.563Z,39.11
2022-08-05T09:00:54.512Z,39.28
2022-08-05T09:02:58.264Z,38.46
2022-08-05T09:05:17.278Z,37.29
2022-08-05T09:07:28.381Z,37.11
2022-08-05T09:09:35.478Z,36.34
2022-08-05T09:11:51.345Z,36.16
2022-08-05T09:14:09.382Z,35.54
2022-08-05T09:16:19.718Z,35.89
2022-08-05T09:18:21.742Z,36.05
2022-08-05T09:20:37.462Z,36.03
2022-08-05T09:23:18.900Z,35.37
2022-08-05T09:25:24.499Z,34.96
2022-08-05T09:28:04.536Z,34.65
2022-08-05T09:30:06.855Z,34.09
2022-08-05T09:32:40.771Z,33.83
2022-08-05T09:35:09.227Z,34.30
2022-08-05T09:37:18.171Z,34.18
2022-08-05T09:39:45.193Z,34.38
2022-08-05T09:42:03.698Z,33.70
2022-08-05T09:44:05.486Z,33.39
2022-08-05T09:46:27.728Z,33.55
2022-08-05T09:48:33.131Z,33.47
2022-08-05T09:50:38.790Z,34.24
2022-08-05T09:52:48.406Z,31.56
2022-08-05T09:55:55.158Z,31.46
2022-08-05T09:57:39.557Z,31.70
2022-08-05T09:59:49.587Z,31.87
2022-08-05T10:01:58.002Z,32.70
2022-08-05T10:04:10.012Z,31.59
2022-08-05T10:06:15.557Z,32.30
2022-08-05T10:08:36.660Z,31.47
2022-08-05T10:10:53.905Z,32.28
2022-08-05T10:12:58.933Z,31.69
2022-08-05T10:15:34.987Z,32.15
2022-08-05T10:17:40.046Z,31.50
2022-08-05T10:20:03.224Z,31.09
2022-08-05T10:22:08.085Z,30.24
2022-08-05T10:24:14.374Z,29.55
2022-08-05T10:26:17.441Z,29.57
2022-08-05T10:28:29.325Z,29.14
2022-08-05T10:31:20.331Z,29.14
2022-08-05T10:33:01.665Z,29.65
2022-08-05T10:35:04.989Z,29.54
2022-08-05T10:37:07.396Z,29.10
2022-08-05T10:39:25.199Z,29.37
2022-08-05T10:42:33.402Z,28.61
2022-08-05T10:44:37.068Z,29.36
2022-08-05T10:46:45.543Z,28.88
2022-08-05T10:49:01.450Z,29.31
2022-08-05T10:51:22.139Z,28.41
2022-08-05T10:53:38.136Z,28.61
2022-08-05T10:56:14.619Z,28.95
2022-08-05T10:58:36.019Z,27.74
2022-08-05T11:00:55.067Z,27.43
2022-08-05T11:03:24.720Z,27.27
2022-08-05T11:05:29.324Z,27.75
2022-08-05T11:08:02.693Z,26.79
2022-08-05T11:10:04.049Z,27.10
2022-08-05T11:12:50.488Z,26.74
2022-08-05T11:15:58.985Z,26.36
2022-08-05T11:18:00.150Z,25.51
2022-08-05T11:20:34.758Z,26.37
2022-08-05T11:22:53.876Z,26.06
2022-08-05T11:26:05.177Z,25.57
2022-08-05T11:28:17.207Z,26.33
2022-08-05T11:30:19.133Z,25.27
2022-08-05T11:32:30.621Z,25.62
2022-08-05T11:34:37.758Z,24.92
2022-08-05T11:36:46.903Z,24.93
2022-08-05T11:38:57.840Z,24.46
2022-08-05T11:41:34.736Z,24.75
2022-08-05T11:44:00.951Z,24.56
2022-08-05T11:46:23.357Z,24.66
2022-08-05T11:48:11.679Z,24.66
2022-08-05T11:50:14.470Z,24.49
2022-08-05T11:52:23.831Z,24.12
2022-08-05T11:54:34.893Z,23.87
2022-08-05T11:56:50.479Z,24.18
2022-08-05T11:58:55.579Z,23.82
2022-08-05T12:01:10.562Z,24.01
2022-08-05T12:03:31.766Z,23.69
2022-08-05T12:05:39.556Z,23.24
2022-08-05T12:08:07.485Z,22.77
2022-08-05T12:10:09.626Z,22.21
2022-08-05T12:12:13.402Z,22.49
2022-08-05T12:14:15.286Z,22.65
2022-08-05T12:16:20.120Z,22.58
2022-08-05T12:18:33.176Z,22.67
2022-08-05T12:20:38.655Z,22.29
2022-08-05T12:22:40.513Z,22.57
2022-08-05T12:24:50.650Z,21.52
2022-08-05T12:26:54.134Z,22.04
2022-08-05T12:28:56.732Z,21.63
2022-08-05T12:31:02.291Z,22.26
2022-08-05T12:33:06.924Z,22.52
2022-08-05T12:35:09.614Z,22.48
2022-08-05T12:37:17.040Z,22.89
2022-08-05T12:39:34.607Z,23.18
2022-08-05T12:41:43.931Z,22.94
2022-08-05T12:43:58.480Z,22.22
2022-08-05T12:46:00.203Z,22.52
2022-08-05T12:48:27.716Z,22.08
2022-08-05T12:50:34.611Z,22.39
2022-08-05T12:52:39.506Z,22.04
2022-08-05T12:54:46.193Z,21.66
2022-08-05T12:56:58.826Z,22.18
2022-08-05T12:59:20.811Z,21.70
2022-08-05T13:02:00.873Z,22.30
2022-08-05T13:03:51.622Z,22.00
2022-08-05T13:05:53.807Z,21.88
2022-08-05T13:08:00.030Z,21.81
2022-08-05T13:10:10.574Z,22.43
2022-08-05T13:12:16.292Z,22.42
2022-08-05T13:14:25.071Z,21.87
2022-08-05T13:16:56.905Z,21.89
2022-08-05T13:18:59.141Z,21.97
2022-08-05T13:21:00.872Z,22.18
2022-08-05T13:23:02.686Z,21.93
2022-08-05T13:25:19.377Z,21.74
2022-08-05T13:27:38.315Z,21.98
2022-08-05T13:29:40.531Z,22.30
2022-08-05T13:32:03.951Z,22.46
2022-08-05T13:34:22.502Z,21.86
2022-08-05T13:36:27.199Z,22.29
2022-08-05T13:38:36.329Z,21.72
2022-08-05T13:40:50.015Z,21.50
2022-08-05T13:42:55.537Z,21.50
2022-08-05T13:44:57.859Z,22.35
2022-08-05T13:47:02.456Z,21.94
2022-08-05T13:49:11.560Z,22.25
2022-08-05T13:51:14.098Z,21.83
2022-08-05T13:53:16.238Z,22.01
2022-08-05T13:55:41.523Z,22.42
2022-08-05T13:57:50.556Z,22.65
2022-08-05T14:00:07.087Z,22.28
2022-08-05T14:02:10.498Z,21.62
2022-08-05T14:04:40.360Z,21.92
2022-08-05T14:06:47.820Z,22.09
2022-08-05T14:08:59.389Z,22.33
2022-08-05T14:11:20.623Z,22.30
2022-08-05T14:13:23.561Z,21.86
2022-08-05T14:16:05.295Z,21.69
2022-08-05T14:17:47.838Z,21.86
2022-08-05T14:19:55.454Z,22.01
2022-08-05T14:22:09.403Z,22.42
2022-08-05T14:24:13.710Z,21.47
2022-08-05T14:26:38.286Z,21.10
2022-08-05T14:28:52.263Z,21.54
2022-08-05T14:30:55.313Z,21.26
2022-08-05T14:32:57.194Z,19.96
2022-08-05T14:34:59.796Z,19.71
2022-08-05T14:37:01.926Z,19.02
2022-08-05T14:39:05.872Z,18.50
2022-08-05T14:41:12.939Z,18.51
2022-08-05T14:43:19.493Z,18.42
2022-08-05T14:45:21.372Z,18.49
2022-08-05T14:48:04.176Z,18.85
2022-08-05T14:49:59.199Z,18.75
2022-08-05T14:52:02.491Z,18.38
2022-08-05T14:54:26.435Z,18.21
2022-08-05T14:56:26.226Z,17.98
2022-08-05T14:58:27.911Z,17.71
2022-08-05T15:00:32.542Z,18.04
2022-08-05T15:02:34.361Z,17.43
2022-08-05T15:04:37.231Z,17.20
2022-08-05T15:06:49.292Z,17.32
2022-08-05T15:08:59.009Z,17.53
2022-08-05T15:11:07.901Z,18.24
2022-08-05T15:13:10.468Z,19.10
2022-08-05T15:15:15.648Z,18.30
2022-08-05T15:17:44.959Z,18.65
2022-08-05T15:19:48.856Z,19.05
2022-08-05T15:21:51.763Z,19.20
2022-08-05T15:23:55.131Z,18.95
2022-08-05T15:26:02.397Z,19.19
2022-08-05T15:28:05.460Z,19.17
2022-08-05T15:30:08.668Z,19.68
2022-08-05T15:32:11.219Z,19.56
2022-08-05T15:34:32.375Z,20.02
2022-08-05T15:36:35.192Z,20.65
2022-08-05T15:38:40.935Z,20.32
2022-08-05T15:41:03.676Z,19.95
2022-08-05T15:43:12.654Z,19.96
2022-08-05T15:45:37.770Z,19.28
2022-08-05T15:47:42.573Z,19.19
2022-08-05T15:49:56.877Z,19.88
2022-08-05T15:52:13.655Z,19.89
2022-08-05T15:54:18.744Z,19.28
2022-08-05T15:56:21.396Z,19.02
2022-08-05T15:58:23.367Z,18.87
2022-08-05T16:00:30.523Z,19.39
2022-08-05T16:02:45.561Z,19.27
2022-08-05T16:04:49.249Z,19.21
2022-08-05T16:06:51.004Z,20.49
2022-08-05T16:08:53.630Z,20.25
2022-08-05T16:10:57.248Z,21.37
2022-08-05T16:12:58.935Z,20.60
2022-08-05T16:15:01.821Z,20.84
2022-08-05T16:17:04.350Z,20.74
2022-08-05T16:19:06.588Z,20.56
2022-08-05T16:21:11.650Z,20.58
2022-08-05T16:23:15.415Z,20.45
2022-08-05T16:25:17.510Z,20.72
2022-08-05T16:27:19.519Z,21.12
2022-08-05T16:29:44.150Z,21.05
2022-08-05T16:31:56.887Z,21.63
2022-08-05T16:33:59.361Z,21.92
2022-08-05T16:36:04.060Z,21.34
2022-08-05T16:38:24.556Z,21.36
2022-08-05T16:40:29.039Z,21.32
2022-08-05T16:42:31.607Z,21.51
2022-08-05T16:44:33.566Z,21.80
2022-08-05T16:46:36.381Z,21.59
2022-08-05T16:48:50.383Z,21.10
2022-08-05T16:50:52.111Z,21.04
2022-08-05T16:52:56.547Z,21.08
2022-08-05T16:54:58.369Z,21.53
2022-08-05T16:57:00.476Z,21.36
2022-08-05T16:59:08.519Z,21.52
2022-08-05T17:01:10.865Z,21.70
2022-08-05T17:03:19.752Z,22.09
2022-08-05T17:05:22.802Z,22.24
2022-08-05T17:07:43.521Z,22.29
2022-08-05T17:10:04.173Z,22.40
2022-08-05T17:12:06.089Z,22.12
2022-08-05T17:14:09.304Z,22.27
2022-08-05T17:16:33.688Z,22.67
2022-08-05T17:18:38.987Z,22.38
2022-08-05T17:20:41.052Z,22.18
2022-08-05T17:22:42.833Z,21.80
2022-08-05T17:24:57.192Z,22.29
2022-08-05T17:27:00.184Z,22.59
2022-08-05T17:29:04.380Z,22.21
2022-08-05T17:31:24.459Z,22.17
2022-08-05T17:33:38.851Z,22.02
2022-08-05T17:36:07.793Z,21.91
2022-08-05T17:38:11.768Z,21.99
2022-08-05T17:40:22.486Z,22.22
2022-08-05T17:42:29.794Z,22.43
2022-08-05T17:44:32.717Z,22.59
2022-08-05T17:46:34.477Z,22.77
2022-08-05T17:48:36.212Z,22.99
2022-08-05T17:50:38.562Z,23.15
2022-08-05T17:52:52.882Z,23.09
2022-08-05T17:54:56.566Z,23.13
2022-08-05T17:56:58.567Z,23.26
2022-08-05T17:59:00.435Z,23.58
2022-08-05T18:01:02.189Z,23.43
2022-08-05T18:03:11.753Z,23.61
2022-08-05T18:05:27.972Z,23.94
2022-08-05T18:07:40.981Z,23.68
2022-08-05T18:09:59.761Z,23.76
2022-08-05T18:12:02.671Z,23.92
2022-08-05T18:14:13.217Z,23.89
2022-08-05T18:16:15.748Z,23.72
2022-08-05T18:18:22.582Z,23.52
2022-08-05T18:20:32.013Z,23.47
2022-08-05T18:22:45.937Z,23.53
2022-08-05T18:24:55.864Z,23.37
2022-08-05T18:26:58.190Z,23.93
2022-08-05T18:29:00.306Z,24.00
2022-08-05T18:31:02.805Z,24.18
2022-08-05T18:33:04.908Z,24.10
2022-08-05T18:35:07.483Z,24.24
2022-08-05T18:37:34.364Z,24.17
2022-08-05T18:40:33.737Z,24.40
2022-08-05T18:42:04.664Z,24.53
2022-08-05T18:44:09.604Z,24.29
2022-08-05T18:46:11.391Z,24.16
2022-08-05T18:48:30.688Z,24.23
2022-08-05T18:50:54.119Z,24.32
2022-08-05T18:52:56.811Z,25.12
2022-08-05T18:54:59.611Z,24.63
2022-08-05T18:57:02.088Z,24.84
2022-08-05T18:59:42.014Z,25.24
2022-08-05T19:01:47.238Z,24.92
2022-08-05T19:03:53.331Z,25.38
2022-08-05T19:06:11.363Z,25.10
2022-08-05T19:08:19.745Z,25.27
2022-08-05T19:10:28.011Z,25.50
2022-08-05T19:12:33.662Z,25.80
2022-08-05T19:14:37.471Z,25.78
2022-08-05T19:16:54.208Z,25.91
2022-08-05T19:18:57.159Z,25.95
2022-08-05T19:20:59.817Z,25.87
2022-08-05T19:23:01.598Z,26.03
2022-08-05T19:25:10.771Z,25.76
2022-08-05T19:27:27.737Z,26.19
2022-08-05T19:29:35.699Z,26.18
2022-08-05T19:31:44.804Z,26.29
2022-08-05T19:33:56.539Z,26.37
2022-08-05T19:35:59.149Z,26.51
2022-08-05T19:38:06.550Z,26.52
2022-08-05T19:40:11.138Z,26.96
2022-08-05T19:42:15.205Z,27.45
2022-08-05T19:44:19.175Z,27.92
2022-08-05T19:46:29.772Z,28.27
2022-08-05T19:48:34.445Z,28.45
2022-08-05T19:50:41.290Z,28.67
2022-08-05T19:52:47.766Z,28.82
2022-08-05T19:54:51.127Z,29.06
2022-08-05T19:56:54.236Z,29.30
2022-08-05T19:58:57.238Z,29.53
2022-08-05T20:01:27.215Z,29.95
2022-08-05T20:03:38.804Z,30.09
2022-08-05T20:05:51.706Z,29.97
2022-08-05T20:07:59.115Z,30.38
2022-08-05T20:10:01.863Z,30.52
2022-08-05T20:12:11.852Z,30.80
2022-08-05T20:14:19.087Z,30.85
2022-08-05T20:16:31.282Z,30.83
2022-08-05T20:18:35.989Z,30.45
2022-08-05T20:20:42.988Z,30.89
2022-08-05T20:22:44.723Z,30.86
2022-08-05T20:24:48.796Z,30.92
2022-08-05T20:26:50.705Z,30.80
2022-08-05T20:28:56.252Z,30.87
2022-08-05T20:30:58.791Z,30.77
2022-08-05T20:33:00.694Z,30.95
2022-08-05T20:35:02.581Z,30.93
2022-08-05T20:37:04.368Z,31.19
2022-08-05T20:39:20.188Z,31.01
2022-08-05T20:41:26.705Z,31.16
2022-08-05T20:43:29.333Z,31.22
2022-08-05T20:45:57.058Z,31.09
2022-08-05T20:48:02.033Z,31.16
2022-08-05T20:50:07.459Z,31.42
2022-08-05T20:52:10.472Z,31.42
2022-08-05T20:54:14.111Z,31.31
2022-08-05T20:56:16.235Z,31.36
2022-08-05T20:58:30.018Z,31.23
2022-08-05T21:00:41.102Z,31.28
2022-08-05T21:02:56.962Z,31.38
2022-08-05T21:05:02.299Z,31.23
2022-08-05T21:07:04.410Z,31.30
2022-08-05T21:09:07.083Z,31.67
2022-08-05T21:11:12.121Z,31.52
2022-08-05T21:13:16.065Z,31.52
2022-08-05T21:15:33.839Z,31.50
2022-08-05T21:17:36.120Z,31.67
2022-08-05T21:19:46.978Z,31.69
2022-08-05T21:21:50.501Z,31.64
2022-08-05T21:23:54.962Z,31.83
2022-08-05T21:25:58.018Z,31.90
2022-08-05T21:28:02.450Z,31.69
2022-08-05T21:30:04.885Z,32.17
2022-08-05T21:32:06.701Z,32.08
2022-08-05T21:34:08.411Z,32.25
2022-08-05T21:36:12.968Z,32.45
2022-08-05T21:38:21.054Z,32.64
2022-08-05T21:40:23.839Z,32.26
2022-08-05T21:42:41.186Z,32.86
2022-08-05T21:44:47.679Z,32.85
2022-08-05T21:46:52.207Z,33.17
2022-08-05T21:48:59.834Z,33.37
2022-08-05T21:51:01.862Z,33.31
2022-08-05T21:53:16.416Z,33.24
2022-08-05T21:55:23.717Z,33.39
2022-08-05T21:57:42.807Z,33.45
2022-08-05T22:00:01.919Z,33.63
2022-08-05T22:02:06.542Z,33.79
2022-08-05T22:04:13.541Z,33.65
2022-08-05T22:06:22.821Z,33.85
2022-08-05T22:08:26.500Z,33.98
2022-08-05T22:10:28.524Z,33.96
2022-08-05T22:12:32.214Z,34.30
2022-08-05T22:14:38.120Z,34.45
2022-08-05T22:16:41.827Z,34.61
2022-08-05T22:18:54.110Z,34.60
2022-08-05T22:21:00.527Z,34.54
2022-08-05T22:23:25.336Z,34.82
2022-08-05T22:26:11.270Z,34.78
2022-08-05T22:28:13.852Z,35.04
2022-08-05T22:30:20.039Z,35.01
2022-08-05T22:32:21.741Z,35.08
2022-08-05T22:34:28.464Z,35.29
2022-08-05T22:36:30.842Z,35.08
2022-08-05T22:38:32.707Z,35.18
2022-08-05T22:40:36.183Z,35.31
2022-08-05T22:42:41.271Z,35.30
2022-08-05T22:44:56.961Z,35.49
2022-08-05T22:46:59.007Z,35.66
2022-08-05T22:49:00.740Z,35.59
2022-08-05T22:51:06.992Z,35.66
2022-08-05T22:53:10.406Z,35.36
2022-08-05T22:55:21.109Z,35.60
2022-08-05T22:57:23.286Z,35.82
2022-08-05T22:59:45.931Z,35.77
2022-08-05T23:02:04.610Z,35.88
2022-08-05T23:04:08.284Z,35.96
2022-08-05T23:06:11.534Z,36.04
2022-08-05T23:08:13.381Z,35.99
2022-08-05T23:10:20.099Z,35.74
2022-08-05T23:12:24.430Z,35.80
2022-08-05T23:14:32.099Z,36.08
2022-08-05T23:16:53.101Z,36.01
2022-08-05T23:18:54.889Z,35.99
2022-08-05T23:20:57.459Z,36.17
2022-08-05T23:23:05.986Z,36.19
2022-08-05T23:25:11.492Z,36.02
2022-08-05T23:27:19.261Z,36.43
2022-08-05T23:29:21.452Z,36.11
2022-08-05T23:31:23.325Z,36.22
2022-08-05T23:33:26.452Z,36.06
2022-08-05T23:35:50.736Z,36.32
2022-08-05T23:37:53.661Z,36.38
2022-08-05T23:39:56.975Z,36.36
2022-08-05T23:41:59.245Z,36.51
2022-08-05T23:44:06.199Z,36.57
2022-08-05T23:46:29.717Z,36.63
2022-08-05T23:48:31.615Z,36.84
2022-08-05T23:50:34.561Z,36.95
2022-08-05T23:52:49.946Z,36.72
2022-08-05T23:54:54.965Z,37.04
2022-08-05T23:57:03.774Z,37.21
2022-08-05T23:59:08.402Z,37.30
